Stouchsburg, Pennsylvania
Current Conditions -  °F | °C
As of 10:54 AM on Friday 24 Oct 2014 (Local Time) from KRDG Reporting Station
Scattered Clouds Scattered Clouds  
Wind Chill: 62°   Ceiling: Unl
Heat Index: 62°   Visibility: 10mi
Dew Point: 43°   Wind: 20mph
Humidity: 50%   Direction: 330°NNW
Pressure: 29.89"   Gusts: 30mph
Location:  40.3905°N, 76.2083°W
Report Text: KRDG 241454Z 33017G26KT 10SM SCT041 17/06 A2989 RMK AO2 PK WND 32027/1442 SLP125 T01670061 50001
Loading
Personal Weather Stations






























Interactive Weather Map
Tropical Storm Tracking
New forecast layout! Learn more

10-Day Weather Forecast

Advertisements
Track Severe Weather on mobile